sensor_id;sensor_type;location;lat;lon;timestamp;temperature;humidity
47354;DHT22;50657;48.830;2.282;2022-07-29T00:00:10;27.60;30.20
47354;DHT22;50657;48.830;2.282;2022-07-29T00:02:37;27.60;30.20
47354;DHT22;50657;48.830;2.282;2022-07-29T00:05:05;27.60;30.20
47354;DHT22;50657;48.830;2.282;2022-07-29T00:07:32;27.60;30.30
47354;DHT22;50657;48.830;2.282;2022-07-29T00:09:59;27.60;30.30
47354;DHT22;50657;48.830;2.282;2022-07-29T00:12:26;27.60;30.30
47354;DHT22;50657;48.830;2.282;2022-07-29T00:14:55;27.50;30.30
47354;DHT22;50657;48.830;2.282;2022-07-29T00:17:23;27.50;30.30
47354;DHT22;50657;48.830;2.282;2022-07-29T00:19:50;27.50;30.30
47354;DHT22;50657;48.830;2.282;2022-07-29T00:22:17;27.50;30.30
47354;DHT22;50657;48.830;2.282;2022-07-29T00:24:44;27.50;30.30
47354;DHT22;50657;48.830;2.282;2022-07-29T00:27:11;27.50;30.30
47354;DHT22;50657;48.830;2.282;2022-07-29T00:29:38;27.50;30.40
47354;DHT22;50657;48.830;2.282;2022-07-29T00:32:07;27.40;30.40
47354;DHT22;50657;48.830;2.282;2022-07-29T00:34:34;27.40;30.50
47354;DHT22;50657;48.830;2.282;2022-07-29T00:37:18;27.40;30.50
47354;DHT22;50657;48.830;2.282;2022-07-29T00:39:45;27.40;30.50
47354;DHT22;50657;48.830;2.282;2022-07-29T00:42:12;27.40;30.50
47354;DHT22;50657;48.830;2.282;2022-07-29T00:44:40;27.30;30.50
47354;DHT22;50657;48.830;2.282;2022-07-29T00:47:10;27.30;30.50
47354;DHT22;50657;48.830;2.282;2022-07-29T00:49:39;27.40;30.70
47354;DHT22;50657;48.830;2.282;2022-07-29T00:52:07;27.30;30.60
47354;DHT22;50657;48.830;2.282;2022-07-29T00:54:35;27.30;30.70
47354;DHT22;50657;48.830;2.282;2022-07-29T00:57:04;27.30;30.70
47354;DHT22;50657;48.830;2.282;2022-07-29T00:59:32;27.30;30.70
47354;DHT22;50657;48.830;2.282;2022-07-29T01:01:59;27.30;30.80
47354;DHT22;50657;48.830;2.282;2022-07-29T01:04:28;27.20;30.80
47354;DHT22;50657;48.830;2.282;2022-07-29T01:06:55;27.30;30.90
47354;DHT22;50657;48.830;2.282;2022-07-29T01:09:23;27.20;30.80
47354;DHT22;50657;48.830;2.282;2022-07-29T01:11:50;27.20;30.90
47354;DHT22;50657;48.830;2.282;2022-07-29T01:14:17;27.20;30.90
47354;DHT22;50657;48.830;2.282;2022-07-29T01:16:49;27.20;31.60
47354;DHT22;50657;48.830;2.282;2022-07-29T01:19:43;27.20;31.00
47354;DHT22;50657;48.830;2.282;2022-07-29T01:22:25;27.20;31.10
47354;DHT22;50657;48.830;2.282;2022-07-29T01:25:05;27.20;31.10
47354;DHT22;50657;48.830;2.282;2022-07-29T01:27:48;27.10;31.10
47354;DHT22;50657;48.830;2.282;2022-07-29T01:30:20;27.10;31.20
47354;DHT22;50657;48.830;2.282;2022-07-29T01:32:55;27.10;31.30
47354;DHT22;50657;48.830;2.282;2022-07-29T01:35:25;27.10;31.90
47354;DHT22;50657;48.830;2.282;2022-07-29T01:37:59;27.10;31.40
47354;DHT22;50657;48.830;2.282;2022-07-29T01:40:33;27.10;31.60
47354;DHT22;50657;48.830;2.282;2022-07-29T01:43:09;27.00;31.70
47354;DHT22;50657;48.830;2.282;2022-07-29T01:45:40;27.00;31.80
47354;DHT22;50657;48.830;2.282;2022-07-29T01:48:13;26.90;31.90
47354;DHT22;50657;48.830;2.282;2022-07-29T01:50:47;27.00;32.10
47354;DHT22;50657;48.830;2.282;2022-07-29T01:53:18;26.90;32.20
47354;DHT22;50657;48.830;2.282;2022-07-29T01:55:48;26.90;32.30
47354;DHT22;50657;48.830;2.282;2022-07-29T01:58:17;26.90;32.40
47354;DHT22;50657;48.830;2.282;2022-07-29T02:00:47;26.90;32.50
47354;DHT22;50657;48.830;2.282;2022-07-29T02:03:16;26.90;32.60
47354;DHT22;50657;48.830;2.282;2022-07-29T02:05:45;26.90;32.70
47354;DHT22;50657;48.830;2.282;2022-07-29T02:08:14;26.80;32.70
47354;DHT22;50657;48.830;2.282;2022-07-29T02:10:42;26.80;32.70
47354;DHT22;50657;48.830;2.282;2022-07-29T02:13:11;26.80;32.80
47354;DHT22;50657;48.830;2.282;2022-07-29T02:15:42;26.80;32.80
47354;DHT22;50657;48.830;2.282;2022-07-29T02:18:17;26.80;32.90
47354;DHT22;50657;48.830;2.282;2022-07-29T02:20:47;26.80;32.90
47354;DHT22;50657;48.830;2.282;2022-07-29T02:23:18;26.70;33.00
47354;DHT22;50657;48.830;2.282;2022-07-29T02:25:48;26.70;33.00
47354;DHT22;50657;48.830;2.282;2022-07-29T02:28:16;26.70;33.10
47354;DHT22;50657;48.830;2.282;2022-07-29T02:30:45;26.70;33.20
47354;DHT22;50657;48.830;2.282;2022-07-29T02:33:16;26.70;33.20
47354;DHT22;50657;48.830;2.282;2022-07-29T02:35:45;26.70;33.30
47354;DHT22;50657;48.830;2.282;2022-07-29T02:38:15;26.60;33.20
47354;DHT22;50657;48.830;2.282;2022-07-29T02:41:01;26.60;33.30
47354;DHT22;50657;48.830;2.282;2022-07-29T02:43:30;26.60;33.40
47354;DHT22;50657;48.830;2.282;2022-07-29T02:45:59;26.60;33.40
47354;DHT22;50657;48.830;2.282;2022-07-29T02:48:37;26.50;33.40
47354;DHT22;50657;48.830;2.282;2022-07-29T02:51:08;26.50;33.50
47354;DHT22;50657;48.830;2.282;2022-07-29T02:53:38;26.50;33.50
47354;DHT22;50657;48.830;2.282;2022-07-29T02:56:11;26.50;33.60
47354;DHT22;50657;48.830;2.282;2022-07-29T02:58:44;26.50;33.70
47354;DHT22;50657;48.830;2.282;2022-07-29T03:01:15;26.50;33.70
47354;DHT22;50657;48.830;2.282;2022-07-29T03:03:45;26.40;33.70
47354;DHT22;50657;48.830;2.282;2022-07-29T03:06:15;26.40;33.70
47354;DHT22;50657;48.830;2.282;2022-07-29T03:08:44;26.40;33.80
47354;DHT22;50657;48.830;2.282;2022-07-29T03:11:12;26.40;33.90
47354;DHT22;50657;48.830;2.282;2022-07-29T03:13:40;26.30;33.90
47354;DHT22;50657;48.830;2.282;2022-07-29T03:16:08;26.30;34.10
47354;DHT22;50657;48.830;2.282;2022-07-29T03:18:36;26.30;34.20
47354;DHT22;50657;48.830;2.282;2022-07-29T03:21:05;26.30;34.30
47354;DHT22;50657;48.830;2.282;2022-07-29T03:23:33;26.30;34.40
47354;DHT22;50657;48.830;2.282;2022-07-29T03:26:00;26.20;34.40
47354;DHT22;50657;48.830;2.282;2022-07-29T03:28:27;26.30;34.50
47354;DHT22;50657;48.830;2.282;2022-07-29T03:30:54;26.30;34.60
47354;DHT22;50657;48.830;2.282;2022-07-29T03:33:21;26.20;34.60
47354;DHT22;50657;48.830;2.282;2022-07-29T03:35:48;26.20;34.60
47354;DHT22;50657;48.830;2.282;2022-07-29T03:38:16;26.20;34.70
47354;DHT22;50657;48.830;2.282;2022-07-29T03:40:46;26.20;34.80
47354;DHT22;50657;48.830;2.282;2022-07-29T03:43:17;26.10;34.70
47354;DHT22;50657;48.830;2.282;2022-07-29T03:45:47;26.20;34.90
47354;DHT22;50657;48.830;2.282;2022-07-29T03:48:19;26.10;34.90
47354;DHT22;50657;48.830;2.282;2022-07-29T03:50:46;26.10;34.90
47354;DHT22;50657;48.830;2.282;2022-07-29T03:53:14;26.10;35.00
47354;DHT22;50657;48.830;2.282;2022-07-29T03:55:44;26.10;35.00
47354;DHT22;50657;48.830;2.282;2022-07-29T03:58:13;26.10;35.10
47354;DHT22;50657;48.830;2.282;2022-07-29T04:00:40;26.10;35.10
47354;DHT22;50657;48.830;2.282;2022-07-29T04:03:08;26.10;35.20
47354;DHT22;50657;48.830;2.282;2022-07-29T04:05:36;26.10;35.20
47354;DHT22;50657;48.830;2.282;2022-07-29T04:08:03;26.00;35.10
47354;DHT22;50657;48.830;2.282;2022-07-29T04:10:30;26.00;35.20
47354;DHT22;50657;48.830;2.282;2022-07-29T04:12:59;26.00;35.20
47354;DHT22;50657;48.830;2.282;2022-07-29T04:15:26;26.00;35.30
47354;DHT22;50657;48.830;2.282;2022-07-29T04:17:54;26.00;35.30
47354;DHT22;50657;48.830;2.282;2022-07-29T04:20:21;26.00;35.40
47354;DHT22;50657;48.830;2.282;2022-07-29T04:22:48;26.00;36.00
47354;DHT22;50657;48.830;2.282;2022-07-29T04:25:15;26.00;35.40
47354;DHT22;50657;48.830;2.282;2022-07-29T04:27:42;25.90;35.40
47354;DHT22;50657;48.830;2.282;2022-07-29T04:30:25;25.90;35.40
47354;DHT22;50657;48.830;2.282;2022-07-29T04:32:52;25.90;35.50
47354;DHT22;50657;48.830;2.282;2022-07-29T04:35:20;25.90;35.60
47354;DHT22;50657;48.830;2.282;2022-07-29T04:37:47;25.80;35.50
47354;DHT22;50657;48.830;2.282;2022-07-29T04:40:14;25.90;35.60
47354;DHT22;50657;48.830;2.282;2022-07-29T04:42:41;25.80;35.60
47354;DHT22;50657;48.830;2.282;2022-07-29T04:45:09;25.80;35.60
47354;DHT22;50657;48.830;2.282;2022-07-29T04:47:37;25.80;35.70
47354;DHT22;50657;48.830;2.282;2022-07-29T04:50:05;25.80;35.70
47354;DHT22;50657;48.830;2.282;2022-07-29T04:52:33;25.80;35.70
47354;DHT22;50657;48.830;2.282;2022-07-29T04:55:00;25.80;35.80
47354;DHT22;50657;48.830;2.282;2022-07-29T04:57:27;25.70;35.70
47354;DHT22;50657;48.830;2.282;2022-07-29T04:59:54;25.80;35.80
47354;DHT22;50657;48.830;2.282;2022-07-29T05:02:21;25.70;35.80
47354;DHT22;50657;48.830;2.282;2022-07-29T05:04:49;25.70;35.80
47354;DHT22;50657;48.830;2.282;2022-07-29T05:07:16;25.70;35.90
47354;DHT22;50657;48.830;2.282;2022-07-29T05:09:44;25.70;35.90
47354;DHT22;50657;48.830;2.282;2022-07-29T05:12:11;25.70;35.90
47354;DHT22;50657;48.830;2.282;2022-07-29T05:14:38;25.70;35.90
47354;DHT22;50657;48.830;2.282;2022-07-29T05:17:05;25.70;35.90
47354;DHT22;50657;48.830;2.282;2022-07-29T05:19:32;25.70;36.00
47354;DHT22;50657;48.830;2.282;2022-07-29T05:22:00;25.70;36.00
47354;DHT22;50657;48.830;2.282;2022-07-29T05:24:27;25.70;36.00
47354;DHT22;50657;48.830;2.282;2022-07-29T05:26:54;25.70;36.10
47354;DHT22;50657;48.830;2.282;2022-07-29T05:29:21;25.70;36.00
47354;DHT22;50657;48.830;2.282;2022-07-29T05:31:48;25.70;36.10
47354;DHT22;50657;48.830;2.282;2022-07-29T05:34:17;25.70;36.00
47354;DHT22;50657;48.830;2.282;2022-07-29T05:36:44;25.70;36.10
47354;DHT22;50657;48.830;2.282;2022-07-29T05:39:13;25.70;36.00
47354;DHT22;50657;48.830;2.282;2022-07-29T05:41:40;25.70;36.00
47354;DHT22;50657;48.830;2.282;2022-07-29T05:44:07;25.80;35.90
47354;DHT22;50657;48.830;2.282;2022-07-29T05:46:34;25.80;35.80
47354;DHT22;50657;48.830;2.282;2022-07-29T05:49:01;25.80;35.70
47354;DHT22;50657;48.830;2.282;2022-07-29T05:51:29;25.80;35.60
47354;DHT22;50657;48.830;2.282;2022-07-29T05:53:56;25.70;35.40
47354;DHT22;50657;48.830;2.282;2022-07-29T05:56:25;25.80;35.40
47354;DHT22;50657;48.830;2.282;2022-07-29T05:58:52;25.70;35.30
47354;DHT22;50657;48.830;2.282;2022-07-29T06:01:19;25.80;35.40
47354;DHT22;50657;48.830;2.282;2022-07-29T06:03:46;25.80;35.20
47354;DHT22;50657;48.830;2.282;2022-07-29T06:06:13;25.80;35.20
47354;DHT22;50657;48.830;2.282;2022-07-29T06:08:40;25.70;35.10
47354;DHT22;50657;48.830;2.282;2022-07-29T06:11:07;25.80;35.20
47354;DHT22;50657;48.830;2.282;2022-07-29T06:13:36;25.80;35.20
47354;DHT22;50657;48.830;2.282;2022-07-29T06:16:04;25.80;35.20
47354;DHT22;50657;48.830;2.282;2022-07-29T06:18:31;25.70;35.20
47354;DHT22;50657;48.830;2.282;2022-07-29T06:20:58;25.80;35.20
47354;DHT22;50657;48.830;2.282;2022-07-29T06:23:25;25.80;35.20
47354;DHT22;50657;48.830;2.282;2022-07-29T06:25:52;25.80;35.20
47354;DHT22;50657;48.830;2.282;2022-07-29T06:28:19;25.80;35.30
47354;DHT22;50657;48.830;2.282;2022-07-29T06:30:47;25.80;35.30
47354;DHT22;50657;48.830;2.282;2022-07-29T06:33:18;25.80;35.30
47354;DHT22;50657;48.830;2.282;2022-07-29T06:35:45;25.80;35.20
47354;DHT22;50657;48.830;2.282;2022-07-29T06:38:13;25.80;35.20
47354;DHT22;50657;48.830;2.282;2022-07-29T06:40:44;25.80;35.20
47354;DHT22;50657;48.830;2.282;2022-07-29T06:43:32;25.80;35.20
47354;DHT22;50657;48.830;2.282;2022-07-29T06:46:04;25.80;35.30
47354;DHT22;50657;48.830;2.282;2022-07-29T06:48:33;25.80;35.30
47354;DHT22;50657;48.830;2.282;2022-07-29T06:51:00;25.80;35.30
47354;DHT22;50657;48.830;2.282;2022-07-29T06:53:27;25.80;35.30
47354;DHT22;50657;48.830;2.282;2022-07-29T06:55:54;25.80;35.20
47354;DHT22;50657;48.830;2.282;2022-07-29T06:58:21;25.80;35.20
47354;DHT22;50657;48.830;2.282;2022-07-29T07:00:55;25.90;35.20
47354;DHT22;50657;48.830;2.282;2022-07-29T07:03:24;25.90;35.10
47354;DHT22;50657;48.830;2.282;2022-07-29T07:05:52;25.90;35.10
47354;DHT22;50657;48.830;2.282;2022-07-29T07:08:21;25.90;35.00
47354;DHT22;50657;48.830;2.282;2022-07-29T07:10:49;25.90;35.00
47354;DHT22;50657;48.830;2.282;2022-07-29T07:13:17;25.90;34.90
47354;DHT22;50657;48.830;2.282;2022-07-29T07:15:44;25.90;34.80
47354;DHT22;50657;48.830;2.282;2022-07-29T07:18:11;25.90;34.80
47354;DHT22;50657;48.830;2.282;2022-07-29T07:20:39;25.90;34.70
47354;DHT22;50657;48.830;2.282;2022-07-29T07:23:06;25.90;34.60
47354;DHT22;50657;48.830;2.282;2022-07-29T07:25:33;25.90;34.60
47354;DHT22;50657;48.830;2.282;2022-07-29T07:28:01;25.90;34.50
47354;DHT22;50657;48.830;2.282;2022-07-29T07:30:28;25.90;34.50
47354;DHT22;50657;48.830;2.282;2022-07-29T07:32:55;25.90;34.50
47354;DHT22;50657;48.830;2.282;2022-07-29T07:35:22;26.00;34.60
47354;DHT22;50657;48.830;2.282;2022-07-29T07:37:51;26.00;34.70
47354;DHT22;50657;48.830;2.282;2022-07-29T07:40:18;26.00;34.80
47354;DHT22;50657;48.830;2.282;2022-07-29T07:42:45;26.00;34.80
47354;DHT22;50657;48.830;2.282;2022-07-29T07:45:12;26.00;34.90
47354;DHT22;50657;48.830;2.282;2022-07-29T07:47:39;26.00;34.90
47354;DHT22;50657;48.830;2.282;2022-07-29T07:50:08;26.10;35.00
47354;DHT22;50657;48.830;2.282;2022-07-29T07:52:46;26.00;35.00
47354;DHT22;50657;48.830;2.282;2022-07-29T07:55:14;26.10;35.10
47354;DHT22;50657;48.830;2.282;2022-07-29T07:57:41;26.10;35.20
47354;DHT22;50657;48.830;2.282;2022-07-29T08:00:09;26.10;35.20
47354;DHT22;50657;48.830;2.282;2022-07-29T08:02:40;26.10;35.30
47354;DHT22;50657;48.830;2.282;2022-07-29T08:05:09;26.20;35.40
47354;DHT22;50657;48.830;2.282;2022-07-29T08:07:37;26.20;35.40
47354;DHT22;50657;48.830;2.282;2022-07-29T08:10:05;26.20;35.40
47354;DHT22;50657;48.830;2.282;2022-07-29T08:12:33;26.20;35.40
47354;DHT22;50657;48.830;2.282;2022-07-29T08:15:00;26.30;35.50
47354;DHT22;50657;48.830;2.282;2022-07-29T08:17:27;26.20;36.10
47354;DHT22;50657;48.830;2.282;2022-07-29T08:19:54;26.30;35.50
47354;DHT22;50657;48.830;2.282;2022-07-29T08:22:21;26.30;35.50
47354;DHT22;50657;48.830;2.282;2022-07-29T08:24:48;26.40;35.50
47354;DHT22;50657;48.830;2.282;2022-07-29T08:27:20;26.40;35.40
47354;DHT22;50657;48.830;2.282;2022-07-29T08:29:48;26.40;35.40
47354;DHT22;50657;48.830;2.282;2022-07-29T08:32:15;26.40;35.30
47354;DHT22;50657;48.830;2.282;2022-07-29T08:34:42;26.50;35.40
47354;DHT22;50657;48.830;2.282;2022-07-29T08:37:12;26.50;35.20
47354;DHT22;50657;48.830;2.282;2022-07-29T08:39:39;26.50;34.90
47354;DHT22;50657;48.830;2.282;2022-07-29T08:42:06;26.50;34.60
47354;DHT22;50657;48.830;2.282;2022-07-29T08:44:35;26.60;34.50
47354;DHT22;50657;48.830;2.282;2022-07-29T08:47:04;26.60;34.30
47354;DHT22;50657;48.830;2.282;2022-07-29T08:49:33;26.60;34.30
47354;DHT22;50657;48.830;2.282;2022-07-29T08:52:01;26.60;34.00
47354;DHT22;50657;48.830;2.282;2022-07-29T08:54:29;26.60;34.00
47354;DHT22;50657;48.830;2.282;2022-07-29T08:56:57;26.70;34.10
47354;DHT22;50657;48.830;2.282;2022-07-29T08:59:27;26.70;33.90
47354;DHT22;50657;48.830;2.282;2022-07-29T09:01:54;26.70;34.00
47354;DHT22;50657;48.830;2.282;2022-07-29T09:04:29;26.80;34.00
47354;DHT22;50657;48.830;2.282;2022-07-29T09:06:57;26.70;33.70
47354;DHT22;50657;48.830;2.282;2022-07-29T09:09:27;26.80;33.60
47354;DHT22;50657;48.830;2.282;2022-07-29T09:11:54;26.80;33.60
47354;DHT22;50657;48.830;2.282;2022-07-29T09:14:21;26.80;33.60
47354;DHT22;50657;48.830;2.282;2022-07-29T09:16:51;26.90;33.60
47354;DHT22;50657;48.830;2.282;2022-07-29T09:19:28;26.90;33.60
47354;DHT22;50657;48.830;2.282;2022-07-29T09:21:56;26.90;33.40
47354;DHT22;50657;48.830;2.282;2022-07-29T09:24:41;27.00;33.40
47354;DHT22;50657;48.830;2.282;2022-07-29T09:27:10;27.00;33.30
47354;DHT22;50657;48.830;2.282;2022-07-29T09:29:38;27.00;33.30
47354;DHT22;50657;48.830;2.282;2022-07-29T09:32:08;27.00;33.30
47354;DHT22;50657;48.830;2.282;2022-07-29T09:34:37;27.00;33.20
47354;DHT22;50657;48.830;2.282;2022-07-29T09:37:05;27.00;33.20
47354;DHT22;50657;48.830;2.282;2022-07-29T09:39:34;27.10;33.30
47354;DHT22;50657;48.830;2.282;2022-07-29T09:42:04;27.10;33.30
47354;DHT22;50657;48.830;2.282;2022-07-29T09:44:44;27.10;33.30
47354;DHT22;50657;48.830;2.282;2022-07-29T09:47:12;27.20;33.30
47354;DHT22;50657;48.830;2.282;2022-07-29T09:50:02;27.20;33.90
47354;DHT22;50657;48.830;2.282;2022-07-29T09:52:30;27.20;33.10
47354;DHT22;50657;48.830;2.282;2022-07-29T09:55:05;27.20;33.10
47354;DHT22;50657;48.830;2.282;2022-07-29T09:57:32;27.30;33.20
47354;DHT22;50657;48.830;2.282;2022-07-29T10:00:00;27.30;33.20
47354;DHT22;50657;48.830;2.282;2022-07-29T10:02:38;27.30;33.10
47354;DHT22;50657;48.830;2.282;2022-07-29T10:05:18;27.30;33.20
47354;DHT22;50657;48.830;2.282;2022-07-29T10:07:47;27.40;33.20
47354;DHT22;50657;48.830;2.282;2022-07-29T10:10:20;27.40;33.20
47354;DHT22;50657;48.830;2.282;2022-07-29T10:12:53;27.40;33.20
47354;DHT22;50657;48.830;2.282;2022-07-29T10:15:22;27.50;33.20
47354;DHT22;50657;48.830;2.282;2022-07-29T10:17:51;27.70;33.30
47354;DHT22;50657;48.830;2.282;2022-07-29T10:20:20;28.00;32.90
47354;DHT22;50657;48.830;2.282;2022-07-29T10:22:47;28.50;32.70
47354;DHT22;50657;48.830;2.282;2022-07-29T10:25:15;29.00;32.10
47354;DHT22;50657;48.830;2.282;2022-07-29T10:27:44;29.60;32.00
47354;DHT22;50657;48.830;2.282;2022-07-29T10:30:12;30.10;30.60
47354;DHT22;50657;48.830;2.282;2022-07-29T10:32:54;30.60;30.00
47354;DHT22;50657;48.830;2.282;2022-07-29T10:35:48;31.20;29.60
47354;DHT22;50657;48.830;2.282;2022-07-29T10:38:40;31.80;29.20
47354;DHT22;50657;48.830;2.282;2022-07-29T10:41:18;32.30;28.80
47354;DHT22;50657;48.830;2.282;2022-07-29T10:43:56;32.70;28.50
47354;DHT22;50657;48.830;2.282;2022-07-29T10:46:25;33.20;28.20
47354;DHT22;50657;48.830;2.282;2022-07-29T10:49:09;33.60;28.00
47354;DHT22;50657;48.830;2.282;2022-07-29T10:52:08;34.00;27.70
47354;DHT22;50657;48.830;2.282;2022-07-29T10:54:47;34.50;27.50
47354;DHT22;50657;48.830;2.282;2022-07-29T10:57:18;34.80;27.30
47354;DHT22;50657;48.830;2.282;2022-07-29T10:59:47;35.10;26.90
47354;DHT22;50657;48.830;2.282;2022-07-29T11:02:42;35.40;26.50
47354;DHT22;50657;48.830;2.282;2022-07-29T11:05:11;35.80;26.40
47354;DHT22;50657;48.830;2.282;2022-07-29T11:10:47;36.40;26.30
47354;DHT22;50657;48.830;2.282;2022-07-29T11:13:44;36.60;26.20
47354;DHT22;50657;48.830;2.282;2022-07-29T11:16:12;36.90;26.00
47354;DHT22;50657;48.830;2.282;2022-07-29T11:21:41;37.30;25.80
47354;DHT22;50657;48.830;2.282;2022-07-29T11:24:13;37.50;26.20
47354;DHT22;50657;48.830;2.282;2022-07-29T11:26:41;37.60;25.60
47354;DHT22;50657;48.830;2.282;2022-07-29T11:29:18;37.80;25.50
47354;DHT22;50657;48.830;2.282;2022-07-29T11:31:48;37.90;25.80
47354;DHT22;50657;48.830;2.282;2022-07-29T11:34:19;38.00;25.70
47354;DHT22;50657;48.830;2.282;2022-07-29T11:37:15;37.80;25.10
47354;DHT22;50657;48.830;2.282;2022-07-29T11:39:44;37.70;25.30
47354;DHT22;50657;48.830;2.282;2022-07-29T11:42:43;37.40;25.40
47354;DHT22;50657;48.830;2.282;2022-07-29T11:45:20;37.20;25.60
47354;DHT22;50657;48.830;2.282;2022-07-29T11:47:51;36.90;25.70
47354;DHT22;50657;48.830;2.282;2022-07-29T11:50:32;36.70;25.90
47354;DHT22;50657;48.830;2.282;2022-07-29T11:53:01;36.40;25.90
47354;DHT22;50657;48.830;2.282;2022-07-29T11:55:30;36.20;26.00
47354;DHT22;50657;48.830;2.282;2022-07-29T11:58:01;36.00;26.10
47354;DHT22;50657;48.830;2.282;2022-07-29T12:00:30;35.80;26.30
47354;DHT22;50657;48.830;2.282;2022-07-29T12:03:00;35.70;26.50
47354;DHT22;50657;48.830;2.282;2022-07-29T12:05:32;35.60;26.70
47354;DHT22;50657;48.830;2.282;2022-07-29T12:08:08;35.40;26.90
47354;DHT22;50657;48.830;2.282;2022-07-29T12:10:37;35.30;27.00
47354;DHT22;50657;48.830;2.282;2022-07-29T12:13:04;35.20;27.10
47354;DHT22;50657;48.830;2.282;2022-07-29T12:15:32;35.00;27.00
47354;DHT22;50657;48.830;2.282;2022-07-29T12:17:59;34.90;27.10
47354;DHT22;50657;48.830;2.282;2022-07-29T12:20:35;34.80;27.10
47354;DHT22;50657;48.830;2.282;2022-07-29T12:23:06;34.80;27.30
47354;DHT22;50657;48.830;2.282;2022-07-29T12:25:34;34.70;27.30
47354;DHT22;50657;48.830;2.282;2022-07-29T12:28:06;34.60;27.30
47354;DHT22;50657;48.830;2.282;2022-07-29T12:30:41;34.60;27.60
47354;DHT22;50657;48.830;2.282;2022-07-29T12:33:14;34.60;27.60
47354;DHT22;50657;48.830;2.282;2022-07-29T12:35:43;34.50;27.60
47354;DHT22;50657;48.830;2.282;2022-07-29T12:38:11;34.30;27.60
47354;DHT22;50657;48.830;2.282;2022-07-29T12:40:39;34.30;27.90
47354;DHT22;50657;48.830;2.282;2022-07-29T12:43:09;34.20;27.90
47354;DHT22;50657;48.830;2.282;2022-07-29T12:45:37;34.20;27.80
47354;DHT22;50657;48.830;2.282;2022-07-29T12:48:05;34.10;27.80
47354;DHT22;50657;48.830;2.282;2022-07-29T12:50:35;34.10;28.00
47354;DHT22;50657;48.830;2.282;2022-07-29T12:53:09;34.10;27.90
47354;DHT22;50657;48.830;2.282;2022-07-29T12:55:41;34.00;27.90
47354;DHT22;50657;48.830;2.282;2022-07-29T12:58:09;34.10;28.00
47354;DHT22;50657;48.830;2.282;2022-07-29T13:00:37;34.00;28.00
47354;DHT22;50657;48.830;2.282;2022-07-29T13:03:04;34.00;28.20
47354;DHT22;50657;48.830;2.282;2022-07-29T13:05:42;33.90;28.20
47354;DHT22;50657;48.830;2.282;2022-07-29T13:08:11;34.00;28.20
47354;DHT22;50657;48.830;2.282;2022-07-29T13:10:38;34.00;28.30
47354;DHT22;50657;48.830;2.282;2022-07-29T13:13:06;33.90;28.50
47354;DHT22;50657;48.830;2.282;2022-07-29T13:15:35;34.00;28.30
47354;DHT22;50657;48.830;2.282;2022-07-29T13:18:03;34.10;28.10
47354;DHT22;50657;48.830;2.282;2022-07-29T13:20:31;34.30;28.00
47354;DHT22;50657;48.830;2.282;2022-07-29T13:22:58;34.70;27.50
47354;DHT22;50657;48.830;2.282;2022-07-29T13:25:28;35.10;27.50
47354;DHT22;50657;48.830;2.282;2022-07-29T13:27:55;35.50;27.50
47354;DHT22;50657;48.830;2.282;2022-07-29T13:30:23;35.90;27.10
47354;DHT22;50657;48.830;2.282;2022-07-29T13:32:52;36.30;26.80
47354;DHT22;50657;48.830;2.282;2022-07-29T13:35:20;36.70;26.70
47354;DHT22;50657;48.830;2.282;2022-07-29T13:37:47;37.20;26.40
47354;DHT22;50657;48.830;2.282;2022-07-29T13:40:14;37.60;26.10
47354;DHT22;50657;48.830;2.282;2022-07-29T13:42:42;37.90;26.00
47354;DHT22;50657;48.830;2.282;2022-07-29T13:45:10;38.30;25.50
47354;DHT22;50657;48.830;2.282;2022-07-29T13:47:37;38.60;25.40
47354;DHT22;50657;48.830;2.282;2022-07-29T13:50:08;39.00;25.20
47354;DHT22;50657;48.830;2.282;2022-07-29T13:52:36;39.20;25.20
47354;DHT22;50657;48.830;2.282;2022-07-29T13:55:05;39.40;25.00
47354;DHT22;50657;48.830;2.282;2022-07-29T13:57:32;39.60;24.90
47354;DHT22;50657;48.830;2.282;2022-07-29T13:59:59;39.80;24.90
47354;DHT22;50657;48.830;2.282;2022-07-29T14:02:34;40.00;24.90
47354;DHT22;50657;48.830;2.282;2022-07-29T14:05:01;40.10;24.40
47354;DHT22;50657;48.830;2.282;2022-07-29T14:07:29;40.30;24.20
47354;DHT22;50657;48.830;2.282;2022-07-29T14:09:56;40.50;24.20
47354;DHT22;50657;48.830;2.282;2022-07-29T14:12:23;40.60;24.00
47354;DHT22;50657;48.830;2.282;2022-07-29T14:14:50;40.80;23.90
47354;DHT22;50657;48.830;2.282;2022-07-29T14:17:17;41.00;23.90
47354;DHT22;50657;48.830;2.282;2022-07-29T14:19:44;41.20;23.90
47354;DHT22;50657;48.830;2.282;2022-07-29T14:22:11;41.20;23.90
47354;DHT22;50657;48.830;2.282;2022-07-29T14:24:40;41.40;23.80
47354;DHT22;50657;48.830;2.282;2022-07-29T14:27:07;41.50;23.70
47354;DHT22;50657;48.830;2.282;2022-07-29T14:29:35;41.60;23.90
47354;DHT22;50657;48.830;2.282;2022-07-29T14:32:02;41.70;23.90
47354;DHT22;50657;48.830;2.282;2022-07-29T14:34:29;41.80;23.60
47354;DHT22;50657;48.830;2.282;2022-07-29T14:36:56;42.00;23.60
47354;DHT22;50657;48.830;2.282;2022-07-29T14:39:24;42.10;23.40
47354;DHT22;50657;48.830;2.282;2022-07-29T14:41:52;42.20;23.40
47354;DHT22;50657;48.830;2.282;2022-07-29T14:44:19;42.30;23.50
47354;DHT22;50657;48.830;2.282;2022-07-29T14:46:46;42.30;24.00
47354;DHT22;50657;48.830;2.282;2022-07-29T14:49:13;42.40;23.40
47354;DHT22;50657;48.830;2.282;2022-07-29T14:51:40;42.50;23.40
47354;DHT22;50657;48.830;2.282;2022-07-29T14:54:08;42.50;23.30
47354;DHT22;50657;48.830;2.282;2022-07-29T14:56:35;42.60;23.10
47354;DHT22;50657;48.830;2.282;2022-07-29T14:59:03;42.70;22.90
47354;DHT22;50657;48.830;2.282;2022-07-29T15:01:31;42.80;22.80
47354;DHT22;50657;48.830;2.282;2022-07-29T15:03:58;42.70;22.80
47354;DHT22;50657;48.830;2.282;2022-07-29T15:06:25;42.70;22.80
47354;DHT22;50657;48.830;2.282;2022-07-29T15:08:52;42.70;23.00
47354;DHT22;50657;48.830;2.282;2022-07-29T15:11:19;42.70;23.20
47354;DHT22;50657;48.830;2.282;2022-07-29T15:13:46;42.70;23.10
47354;DHT22;50657;48.830;2.282;2022-07-29T15:16:15;42.70;23.10
47354;DHT22;50657;48.830;2.282;2022-07-29T15:18:42;42.90;23.20
47354;DHT22;50657;48.830;2.282;2022-07-29T15:21:09;43.00;23.00
47354;DHT22;50657;48.830;2.282;2022-07-29T15:23:36;43.10;22.80
47354;DHT22;50657;48.830;2.282;2022-07-29T15:26:04;43.30;22.70
47354;DHT22;50657;48.830;2.282;2022-07-29T15:28:31;43.40;22.90
47354;DHT22;50657;48.830;2.282;2022-07-29T15:30:58;43.40;22.90
47354;DHT22;50657;48.830;2.282;2022-07-29T15:33:26;43.50;22.80
47354;DHT22;50657;48.830;2.282;2022-07-29T15:35:55;43.60;22.90
47354;DHT22;50657;48.830;2.282;2022-07-29T15:38:22;43.60;22.90
47354;DHT22;50657;48.830;2.282;2022-07-29T15:40:49;43.70;22.80
47354;DHT22;50657;48.830;2.282;2022-07-29T15:43:16;43.70;22.70
47354;DHT22;50657;48.830;2.282;2022-07-29T15:45:44;43.80;23.20
47354;DHT22;50657;48.830;2.282;2022-07-29T15:48:33;43.70;22.70
47354;DHT22;50657;48.830;2.282;2022-07-29T15:51:01;43.70;22.60